Arbor Vitae, Wisconsin
Current Conditions -  °F | °C
As of 8:15 AM on Friday 28 Nov 2014 (Local Time) from KARV Reporting Station
Light Snow Light Snow  
Wind Chill:   Ceiling: 2600
Heat Index:   Visibility: 10mi
Dew Point:   Wind: 5mph
Humidity: 83%   Direction: 150°SSE
Pressure: 30.06"   Gusts: NA
Location:  45.9553°N, 89.6779°W
Report Text: KARV 281415Z AUTO 15004KT 10SM -SN OVC026 M13/M15 A3006 RMK AO2 T11281151
Loading
Personal Weather Stations






























Interactive Weather Map New forecast layout! Learn more

10-Day Weather Forecast

Advertisements
Track Severe Weather on mobile